Pittsburgh, Pennsylvania
Traffic Map
Current Weather Conditions
Pittsburgh, Pennsylvania
Scattered Clouds
Scattered Clouds
59°
Feels Like: 59°
Wind Chill: 59° Ceiling: Unl
Heat Index: 59° Visibility: 10mi
Dew Point: 50° Wind: 10mph
Humidity: 72% Direction: 200° (SSW)
Pressure: 30.18in Gusts: 0mph
Raw Report DataKAGC 200953Z 20009KT 10SM SCT060 15/10 A3018 RMK AO2 SLP221 T01500100
Traffic Incident Summary
Active as of:
Severity:
Category:
InformationThere was an issue retrieving the traffic information for this location. Please try a different location or try again shortly.
Advertisements